sensor_id;sensor_type;location;lat;lon;timestamp;pressure;altitude;pressure_sealevel;temperature;humidity
7918;BME280;4004;42.624;23.386;2023-03-19T00:00:48;94652.94;;;1.73;69.48
7918;BME280;4004;42.624;23.386;2023-03-19T00:03:15;94644.06;;;1.63;70.41
7918;BME280;4004;42.624;23.386;2023-03-19T00:05:49;94646.72;;;1.63;70.44
7918;BME280;4004;42.624;23.386;2023-03-19T00:08:17;94646.44;;;1.65;70.60
7918;BME280;4004;42.624;23.386;2023-03-19T00:10:45;94641.91;;;1.65;70.63
7918;BME280;4004;42.624;23.386;2023-03-19T00:13:11;94645.63;;;1.64;70.81
7918;BME280;4004;42.624;23.386;2023-03-19T00:15:38;94641.41;;;1.63;70.97
7918;BME280;4004;42.624;23.386;2023-03-19T00:18:05;94630.88;;;1.58;71.53
7918;BME280;4004;42.624;23.386;2023-03-19T00:20:33;94635.16;;;1.54;71.57
7918;BME280;4004;42.624;23.386;2023-03-19T00:22:59;94632.88;;;1.48;71.98
7918;BME280;4004;42.624;23.386;2023-03-19T00:25:26;94633.16;;;1.46;72.10
7918;BME280;4004;42.624;23.386;2023-03-19T00:27:54;94628.34;;;1.48;72.16
7918;BME280;4004;42.624;23.386;2023-03-19T00:30:21;94627.13;;;1.40;72.14
7918;BME280;4004;42.624;23.386;2023-03-19T00:32:49;94622.38;;;1.37;72.07
7918;BME280;4004;42.624;23.386;2023-03-19T00:35:16;94622.63;;;1.41;72.14
7918;BME280;4004;42.624;23.386;2023-03-19T00:37:42;94615.88;;;1.49;71.31
7918;BME280;4004;42.624;23.386;2023-03-19T00:40:10;94614.25;;;1.53;70.70
7918;BME280;4004;42.624;23.386;2023-03-19T00:42:37;94612.69;;;1.52;70.03
7918;BME280;4004;42.624;23.386;2023-03-19T00:45:06;94610.03;;;1.52;70.10
7918;BME280;4004;42.624;23.386;2023-03-19T00:47:33;94604.22;;;1.50;70.99
7918;BME280;4004;42.624;23.386;2023-03-19T00:50:00;94605.44;;;1.57;71.15
7918;BME280;4004;42.624;23.386;2023-03-19T00:52:27;94606.22;;;1.58;72.21
7918;BME280;4004;42.624;23.386;2023-03-19T00:54:53;94604.88;;;1.60;73.05
7918;BME280;4004;42.624;23.386;2023-03-19T00:57:20;94595.06;;;1.61;72.90
7918;BME280;4004;42.624;23.386;2023-03-19T00:59:47;94592.91;;;1.63;72.95
7918;BME280;4004;42.624;23.386;2023-03-19T01:02:15;94603.22;;;1.64;72.94
7918;BME280;4004;42.624;23.386;2023-03-19T01:04:42;94604.16;;;1.74;73.30
7918;BME280;4004;42.624;23.386;2023-03-19T01:07:09;94605.31;;;1.68;73.56
7918;BME280;4004;42.624;23.386;2023-03-19T01:09:36;94602.16;;;1.65;74.41
7918;BME280;4004;42.624;23.386;2023-03-19T01:12:04;94597.63;;;1.66;74.33
7918;BME280;4004;42.624;23.386;2023-03-19T01:14:31;94592.34;;;1.66;74.04
7918;BME280;4004;42.624;23.386;2023-03-19T01:16:58;94598.13;;;1.68;72.98
7918;BME280;4004;42.624;23.386;2023-03-19T01:19:26;94599.41;;;1.71;71.75
7918;BME280;4004;42.624;23.386;2023-03-19T01:21:53;94595.16;;;1.56;70.95
7918;BME280;4004;42.624;23.386;2023-03-19T01:24:20;94597.13;;;1.45;71.29
7918;BME280;4004;42.624;23.386;2023-03-19T01:26:46;94595.22;;;1.27;72.66
7918;BME280;4004;42.624;23.386;2023-03-19T01:29:13;94591.09;;;1.20;73.83
7918;BME280;4004;42.624;23.386;2023-03-19T01:31:40;94586.94;;;1.14;74.91
7918;BME280;4004;42.624;23.386;2023-03-19T01:34:06;94581.75;;;1.04;74.84
7918;BME280;4004;42.624;23.386;2023-03-19T01:36:35;94577.94;;;0.91;75.70
7918;BME280;4004;42.624;23.386;2023-03-19T01:39:02;94587.78;;;0.86;77.11
7918;BME280;4004;42.624;23.386;2023-03-19T01:41:29;94582.44;;;0.91;77.50
7918;BME280;4004;42.624;23.386;2023-03-19T01:43:56;94582.44;;;0.91;77.57
7918;BME280;4004;42.624;23.386;2023-03-19T01:46:26;94577.94;;;0.91;77.67
7918;BME280;4004;42.624;23.386;2023-03-19T01:48:54;94579.56;;;0.87;78.09
7918;BME280;4004;42.624;23.386;2023-03-19T01:51:26;94579.06;;;0.85;77.87
7918;BME280;4004;42.624;23.386;2023-03-19T01:53:58;94584.91;;;0.82;78.01
7918;BME280;4004;42.624;23.386;2023-03-19T01:56:29;94586.44;;;0.88;78.01
7918;BME280;4004;42.624;23.386;2023-03-19T01:59:01;94580.97;;;0.79;78.28
7918;BME280;4004;42.624;23.386;2023-03-19T02:01:32;94592.34;;;0.80;78.07
7918;BME280;4004;42.624;23.386;2023-03-19T02:04:01;94583.28;;;0.86;77.50
7918;BME280;4004;42.624;23.386;2023-03-19T02:06:29;94588.03;;;0.89;77.55
7918;BME280;4004;42.624;23.386;2023-03-19T02:08:58;94589.84;;;0.89;76.70
7918;BME280;4004;42.624;23.386;2023-03-19T02:11:25;94589.53;;;0.95;77.03
7918;BME280;4004;42.624;23.386;2023-03-19T02:13:52;94587.19;;;0.94;77.11
7918;BME280;4004;42.624;23.386;2023-03-19T02:16:19;94584.53;;;0.94;77.52
7918;BME280;4004;42.624;23.386;2023-03-19T02:18:46;94591.31;;;1.00;77.38
7918;BME280;4004;42.624;23.386;2023-03-19T02:21:15;94597.75;;;0.94;76.56
7918;BME280;4004;42.624;23.386;2023-03-19T02:23:48;94591.44;;;0.90;76.88
7918;BME280;4004;42.624;23.386;2023-03-19T02:26:19;94591.72;;;0.88;76.15
7918;BME280;4004;42.624;23.386;2023-03-19T02:28:48;94586.22;;;0.60;77.76
7918;BME280;4004;42.624;23.386;2023-03-19T02:31:16;94597.66;;;0.51;80.41
7918;BME280;4004;42.624;23.386;2023-03-19T02:33:43;94596.38;;;0.48;82.37
7918;BME280;4004;42.624;23.386;2023-03-19T02:36:14;94590.88;;;0.45;84.37
7918;BME280;4004;42.624;23.386;2023-03-19T02:38:43;94592.31;;;0.32;85.18
7918;BME280;4004;42.624;23.386;2023-03-19T02:41:12;94594.44;;;0.30;86.33
7918;BME280;4004;42.624;23.386;2023-03-19T02:43:40;94598.69;;;0.26;88.02
7918;BME280;4004;42.624;23.386;2023-03-19T02:46:09;94584.72;;;0.20;88.76
7918;BME280;4004;42.624;23.386;2023-03-19T02:48:37;94591.13;;;0.14;89.79
7918;BME280;4004;42.624;23.386;2023-03-19T02:51:05;94588.00;;;0.07;89.08
7918;BME280;4004;42.624;23.386;2023-03-19T02:53:32;94588.31;;;0.05;89.21
7918;BME280;4004;42.624;23.386;2023-03-19T02:56:00;94592.28;;;0.03;88.76
7918;BME280;4004;42.624;23.386;2023-03-19T02:58:27;94595.88;;;0.17;87.92
7918;BME280;4004;42.624;23.386;2023-03-19T03:00:55;94593.34;;;0.31;85.69
7918;BME280;4004;42.624;23.386;2023-03-19T03:03:22;94589.34;;;0.33;84.21
7918;BME280;4004;42.624;23.386;2023-03-19T03:05:48;94595.34;;;0.44;82.80
7918;BME280;4004;42.624;23.386;2023-03-19T03:08:15;94600.09;;;0.47;82.03
7918;BME280;4004;42.624;23.386;2023-03-19T03:10:43;94597.91;;;0.54;81.38
7918;BME280;4004;42.624;23.386;2023-03-19T03:13:10;94600.22;;;0.61;80.59
7918;BME280;4004;42.624;23.386;2023-03-19T03:15:36;94598.53;;;0.70;79.29
7918;BME280;4004;42.624;23.386;2023-03-19T03:18:05;94603.78;;;0.75;78.40
7918;BME280;4004;42.624;23.386;2023-03-19T03:20:31;94611.16;;;0.78;77.84
7918;BME280;4004;42.624;23.386;2023-03-19T03:22:58;94610.09;;;0.79;77.70
7918;BME280;4004;42.624;23.386;2023-03-19T03:25:25;94617.31;;;0.74;78.17
7918;BME280;4004;42.624;23.386;2023-03-19T03:27:52;94620.72;;;0.74;78.76
7918;BME280;4004;42.624;23.386;2023-03-19T03:30:19;94620.81;;;0.64;79.23
7918;BME280;4004;42.624;23.386;2023-03-19T03:32:46;94626.13;;;0.64;79.78
7918;BME280;4004;42.624;23.386;2023-03-19T03:35:14;94627.47;;;0.61;79.75
7918;BME280;4004;42.624;23.386;2023-03-19T03:37:46;94633.31;;;0.58;80.68
7918;BME280;4004;42.624;23.386;2023-03-19T03:40:13;94619.72;;;0.41;82.98
7918;BME280;4004;42.624;23.386;2023-03-19T03:42:40;94620.81;;;0.35;85.25
7918;BME280;4004;42.624;23.386;2023-03-19T03:45:08;94631.97;;;0.32;85.72
7918;BME280;4004;42.624;23.386;2023-03-19T03:47:36;94634.63;;;0.27;86.81
7918;BME280;4004;42.624;23.386;2023-03-19T03:50:04;94638.94;;;0.17;87.84
7918;BME280;4004;42.624;23.386;2023-03-19T03:52:32;94636.09;;;0.09;90.12
7918;BME280;4004;42.624;23.386;2023-03-19T03:55:00;94629.81;;;0.05;89.99
7918;BME280;4004;42.624;23.386;2023-03-19T03:57:27;94640.09;;;0.06;90.51
7918;BME280;4004;42.624;23.386;2023-03-19T03:59:53;94637.13;;;0.13;89.98
7918;BME280;4004;42.624;23.386;2023-03-19T04:02:20;94630.78;;;0.14;89.47
7918;BME280;4004;42.624;23.386;2023-03-19T04:04:47;94633.41;;;0.19;88.71
7918;BME280;4004;42.624;23.386;2023-03-19T04:07:14;94626.50;;;0.23;87.52
7918;BME280;4004;42.624;23.386;2023-03-19T04:09:42;94624.88;;;0.27;86.48
7918;BME280;4004;42.624;23.386;2023-03-19T04:12:10;94620.88;;;0.30;86.36
7918;BME280;4004;42.624;23.386;2023-03-19T04:14:37;94616.94;;;0.27;86.93
7918;BME280;4004;42.624;23.386;2023-03-19T04:17:04;94632.31;;;0.20;88.25
7918;BME280;4004;42.624;23.386;2023-03-19T04:19:31;94631.56;;;0.14;88.45
7918;BME280;4004;42.624;23.386;2023-03-19T04:21:58;94626.34;;;0.09;88.48
7918;BME280;4004;42.624;23.386;2023-03-19T04:24:25;94624.03;;;-0.03;88.61
7918;BME280;4004;42.624;23.386;2023-03-19T04:26:53;94632.63;;;-0.21;89.38
7918;BME280;4004;42.624;23.386;2023-03-19T04:29:20;94625.72;;;-0.17;90.27
7918;BME280;4004;42.624;23.386;2023-03-19T04:31:47;94636.84;;;-0.20;90.85
7918;BME280;4004;42.624;23.386;2023-03-19T04:34:14;94638.16;;;-0.23;90.85
7918;BME280;4004;42.624;23.386;2023-03-19T04:36:40;94643.97;;;-0.21;90.38
7918;BME280;4004;42.624;23.386;2023-03-19T04:39:07;94647.22;;;-0.29;91.90
7918;BME280;4004;42.624;23.386;2023-03-19T04:41:34;94631.59;;;-0.25;93.22
7918;BME280;4004;42.624;23.386;2023-03-19T04:44:02;94643.66;;;-0.14;93.72
7918;BME280;4004;42.624;23.386;2023-03-19T04:46:29;94639.88;;;0.03;92.03
7918;BME280;4004;42.624;23.386;2023-03-19T04:48:55;94640.75;;;0.27;90.77
7918;BME280;4004;42.624;23.386;2023-03-19T04:51:24;94640.06;;;0.46;90.38
7918;BME280;4004;42.624;23.386;2023-03-19T04:53:50;94633.53;;;0.91;89.08
7918;BME280;4004;42.624;23.386;2023-03-19T04:56:17;94635.38;;;1.15;84.92
7918;BME280;4004;42.624;23.386;2023-03-19T04:58:44;94634.94;;;1.32;81.06
7918;BME280;4004;42.624;23.386;2023-03-19T05:01:12;94641.13;;;1.22;79.54
7918;BME280;4004;42.624;23.386;2023-03-19T05:03:39;94649.69;;;1.14;80.00
7918;BME280;4004;42.624;23.386;2023-03-19T05:06:06;94640.63;;;0.96;83.30
7918;BME280;4004;42.624;23.386;2023-03-19T05:08:33;94647.59;;;1.11;84.48
7918;BME280;4004;42.624;23.386;2023-03-19T05:11:00;94638.78;;;1.20;85.01
7918;BME280;4004;42.624;23.386;2023-03-19T05:13:27;94632.00;;;1.09;85.16
7918;BME280;4004;42.624;23.386;2023-03-19T05:15:54;94634.84;;;1.37;85.27
7918;BME280;4004;42.624;23.386;2023-03-19T05:18:23;94640.59;;;1.44;82.86
7918;BME280;4004;42.624;23.386;2023-03-19T05:20:50;94643.53;;;1.61;80.93
7918;BME280;4004;42.624;23.386;2023-03-19T05:23:17;94643.41;;;1.72;79.04
7918;BME280;4004;42.624;23.386;2023-03-19T05:25:44;94644.34;;;2.00;77.81
7918;BME280;4004;42.624;23.386;2023-03-19T05:28:12;94656.00;;;2.37;77.47
7918;BME280;4004;42.624;23.386;2023-03-19T05:30:39;94648.41;;;2.63;75.32
7918;BME280;4004;42.624;23.386;2023-03-19T05:33:07;94653.16;;;2.80;73.50
7918;BME280;4004;42.624;23.386;2023-03-19T05:35:36;94649.44;;;2.81;74.08
7918;BME280;4004;42.624;23.386;2023-03-19T05:38:03;94641.09;;;3.01;73.64
7918;BME280;4004;42.624;23.386;2023-03-19T05:40:30;94650.53;;;3.21;72.16
7918;BME280;4004;42.624;23.386;2023-03-19T05:42:59;94642.47;;;3.40;71.03
7918;BME280;4004;42.624;23.386;2023-03-19T05:45:26;94648.84;;;3.53;68.91
7918;BME280;4004;42.624;23.386;2023-03-19T05:47:53;94651.50;;;3.67;67.63
7918;BME280;4004;42.624;23.386;2023-03-19T05:50:19;94650.94;;;3.56;67.49
7918;BME280;4004;42.624;23.386;2023-03-19T05:52:47;94653.44;;;3.75;68.45
7918;BME280;4004;42.624;23.386;2023-03-19T05:55:14;94651.25;;;3.91;67.66
7918;BME280;4004;42.624;23.386;2023-03-19T05:57:41;94649.44;;;4.14;66.40
7918;BME280;4004;42.624;23.386;2023-03-19T06:00:09;94648.59;;;4.27;63.85
7918;BME280;4004;42.624;23.386;2023-03-19T06:02:36;94655.78;;;4.49;63.55
7918;BME280;4004;42.624;23.386;2023-03-19T06:05:04;94648.63;;;4.81;61.25
7918;BME280;4004;42.624;23.386;2023-03-19T06:07:31;94650.03;;;5.10;62.15
7918;BME280;4004;42.624;23.386;2023-03-19T06:09:59;94657.97;;;5.41;59.56
7918;BME280;4004;42.624;23.386;2023-03-19T06:12:26;94645.78;;;5.57;58.14
7918;BME280;4004;42.624;23.386;2023-03-19T06:14:53;94638.31;;;5.77;57.11
7918;BME280;4004;42.624;23.386;2023-03-19T06:17:20;94652.03;;;6.10;56.26
7918;BME280;4004;42.624;23.386;2023-03-19T06:19:46;94654.88;;;6.22;54.66
7918;BME280;4004;42.624;23.386;2023-03-19T06:22:13;94656.44;;;6.41;55.08
7918;BME280;4004;42.624;23.386;2023-03-19T06:24:40;94658.31;;;6.49;53.70
7918;BME280;4004;42.624;23.386;2023-03-19T06:27:08;94661.22;;;6.91;53.53
7918;BME280;4004;42.624;23.386;2023-03-19T06:29:35;94655.06;;;7.08;52.53
7918;BME280;4004;42.624;23.386;2023-03-19T06:32:02;94653.97;;;7.47;52.33
7918;BME280;4004;42.624;23.386;2023-03-19T06:34:29;94674.00;;;7.71;50.92
7918;BME280;4004;42.624;23.386;2023-03-19T06:36:55;94664.88;;;7.93;50.64
7918;BME280;4004;42.624;23.386;2023-03-19T06:39:22;94675.78;;;7.88;50.35
7918;BME280;4004;42.624;23.386;2023-03-19T06:41:49;94673.53;;;8.20;48.94
7918;BME280;4004;42.624;23.386;2023-03-19T06:44:17;94671.31;;;8.22;49.04
7918;BME280;4004;42.624;23.386;2023-03-19T06:46:44;94671.06;;;8.36;49.15
7918;BME280;4004;42.624;23.386;2023-03-19T06:49:11;94675.44;;;8.82;48.01
7918;BME280;4004;42.624;23.386;2023-03-19T06:51:38;94683.44;;;9.03;47.58
7918;BME280;4004;42.624;23.386;2023-03-19T06:54:05;94681.75;;;9.57;46.04
7918;BME280;4004;42.624;23.386;2023-03-19T06:56:31;94688.22;;;9.43;45.96
7918;BME280;4004;42.624;23.386;2023-03-19T06:58:58;94692.94;;;9.83;45.09
7918;BME280;4004;42.624;23.386;2023-03-19T07:01:26;94682.97;;;9.71;44.82
7918;BME280;4004;42.624;23.386;2023-03-19T07:03:53;94686.91;;;9.99;44.43
7918;BME280;4004;42.624;23.386;2023-03-19T07:06:21;94685.97;;;10.31;43.67
7918;BME280;4004;42.624;23.386;2023-03-19T07:08:48;94689.03;;;10.30;44.09
7918;BME280;4004;42.624;23.386;2023-03-19T07:11:14;94692.22;;;10.48;43.21
7918;BME280;4004;42.624;23.386;2023-03-19T07:13:41;94685.84;;;10.81;42.85
7918;BME280;4004;42.624;23.386;2023-03-19T07:16:08;94687.88;;;10.71;42.84
7918;BME280;4004;42.624;23.386;2023-03-19T07:18:36;94689.13;;;10.74;42.18
7918;BME280;4004;42.624;23.386;2023-03-19T07:21:03;94685.19;;;10.71;42.67
7918;BME280;4004;42.624;23.386;2023-03-19T07:23:30;94685.25;;;10.59;43.18
7918;BME280;4004;42.624;23.386;2023-03-19T07:25:57;94677.91;;;10.44;42.63
7918;BME280;4004;42.624;23.386;2023-03-19T07:28:24;94673.00;;;10.09;42.64
7918;BME280;4004;42.624;23.386;2023-03-19T07:30:51;94672.66;;;10.23;43.00
7918;BME280;4004;42.624;23.386;2023-03-19T07:33:18;94675.22;;;10.19;43.37
7918;BME280;4004;42.624;23.386;2023-03-19T07:35:46;94668.44;;;10.09;43.63
7918;BME280;4004;42.624;23.386;2023-03-19T07:38:13;94677.25;;;9.98;44.00
7918;BME280;4004;42.624;23.386;2023-03-19T07:40:40;94683.31;;;9.82;43.36
7918;BME280;4004;42.624;23.386;2023-03-19T07:43:06;94666.97;;;10.12;43.25
7918;BME280;4004;42.624;23.386;2023-03-19T07:45:33;94687.50;;;10.57;43.19
7918;BME280;4004;42.624;23.386;2023-03-19T07:48:00;94677.00;;;10.40;43.59
7918;BME280;4004;42.624;23.386;2023-03-19T07:50:28;94687.31;;;10.37;42.99
7918;BME280;4004;42.624;23.386;2023-03-19T07:52:56;94678.22;;;10.54;43.76
7918;BME280;4004;42.624;23.386;2023-03-19T07:55:23;94677.28;;;10.91;42.78
7918;BME280;4004;42.624;23.386;2023-03-19T07:57:50;94679.28;;;11.38;42.06
7918;BME280;4004;42.624;23.386;2023-03-19T08:00:17;94676.66;;;11.26;41.78
7918;BME280;4004;42.624;23.386;2023-03-19T08:02:44;94674.75;;;11.42;41.70
7918;BME280;4004;42.624;23.386;2023-03-19T08:05:11;94688.66;;;11.76;41.27
7918;BME280;4004;42.624;23.386;2023-03-19T08:07:38;94680.78;;;11.83;40.42
7918;BME280;4004;42.624;23.386;2023-03-19T08:10:07;94684.78;;;11.89;40.59
7918;BME280;4004;42.624;23.386;2023-03-19T08:12:34;94682.88;;;11.74;40.30
7918;BME280;4004;42.624;23.386;2023-03-19T08:15:07;94688.44;;;11.65;39.54
7918;BME280;4004;42.624;23.386;2023-03-19T08:17:34;94689.19;;;11.66;39.80
7918;BME280;4004;42.624;23.386;2023-03-19T08:20:04;94684.16;;;11.80;40.75
7918;BME280;4004;42.624;23.386;2023-03-19T08:22:33;94688.50;;;12.00;40.32
7918;BME280;4004;42.624;23.386;2023-03-19T08:25:00;94680.56;;;12.23;39.39
7918;BME280;4004;42.624;23.386;2023-03-19T08:27:28;94682.91;;;12.25;39.07
7918;BME280;4004;42.624;23.386;2023-03-19T08:29:56;94674.69;;;12.37;38.84
7918;BME280;4004;42.624;23.386;2023-03-19T08:32:23;94686.72;;;12.24;39.51
7918;BME280;4004;42.624;23.386;2023-03-19T08:34:50;94670.34;;;12.33;38.98
7918;BME280;4004;42.624;23.386;2023-03-19T08:37:17;94668.72;;;12.28;38.84
7918;BME280;4004;42.624;23.386;2023-03-19T08:39:44;94672.38;;;12.20;38.74
7918;BME280;4004;42.624;23.386;2023-03-19T08:42:11;94663.06;;;12.53;38.40
7918;BME280;4004;42.624;23.386;2023-03-19T08:44:39;94661.31;;;12.80;38.22
7918;BME280;4004;42.624;23.386;2023-03-19T08:47:06;94665.50;;;12.97;37.21
7918;BME280;4004;42.624;23.386;2023-03-19T08:49:33;94659.63;;;12.72;37.14
7918;BME280;4004;42.624;23.386;2023-03-19T08:51:59;94659.19;;;12.15;38.48
7918;BME280;4004;42.624;23.386;2023-03-19T08:54:26;94653.84;;;11.83;39.28
7918;BME280;4004;42.624;23.386;2023-03-19T08:56:53;94649.94;;;11.96;39.11
7918;BME280;4004;42.624;23.386;2023-03-19T08:59:20;94646.19;;;11.85;38.61
7918;BME280;4004;42.624;23.386;2023-03-19T09:01:50;94647.63;;;11.82;39.36
7918;BME280;4004;42.624;23.386;2023-03-19T09:04:17;94639.34;;;11.72;39.08
7918;BME280;4004;42.624;23.386;2023-03-19T09:06:44;94646.53;;;11.68;38.58
7918;BME280;4004;42.624;23.386;2023-03-19T09:09:15;94633.75;;;11.65;38.81
7918;BME280;4004;42.624;23.386;2023-03-19T09:11:42;94634.88;;;11.95;38.76
7918;BME280;4004;42.624;23.386;2023-03-19T09:14:08;94631.91;;;12.00;38.54
7918;BME280;4004;42.624;23.386;2023-03-19T09:16:37;94635.91;;;12.07;38.92
7918;BME280;4004;42.624;23.386;2023-03-19T09:19:05;94634.78;;;11.76;38.01
7918;BME280;4004;42.624;23.386;2023-03-19T09:21:32;94632.38;;;11.71;38.49
7918;BME280;4004;42.624;23.386;2023-03-19T09:23:59;94632.22;;;11.48;38.66
7918;BME280;4004;42.624;23.386;2023-03-19T09:26:26;94624.31;;;11.39;38.65
7918;BME280;4004;42.624;23.386;2023-03-19T09:28:53;94631.84;;;11.33;38.05
7918;BME280;4004;42.624;23.386;2023-03-19T09:31:20;94623.78;;;11.17;38.93
7918;BME280;4004;42.624;23.386;2023-03-19T09:33:47;94631.84;;;11.02;39.07
7918;BME280;4004;42.624;23.386;2023-03-19T09:36:15;94635.06;;;11.07;39.14
7918;BME280;4004;42.624;23.386;2023-03-19T09:38:42;94633.91;;;10.92;39.80
7918;BME280;4004;42.624;23.386;2023-03-19T09:41:12;94628.59;;;10.96;40.03
7918;BME280;4004;42.624;23.386;2023-03-19T09:43:55;94626.44;;;11.02;39.29
7918;BME280;4004;42.624;23.386;2023-03-19T09:46:28;94626.69;;;10.81;39.56
7918;BME280;4004;42.624;23.386;2023-03-19T09:48:59;94628.81;;;10.75;39.63
7918;BME280;4004;42.624;23.386;2023-03-19T09:51:36;94615.97;;;10.68;40.14
7918;BME280;4004;42.624;23.386;2023-03-19T09:54:11;94618.41;;;10.73;40.95
7918;BME280;4004;42.624;23.386;2023-03-19T09:56:38;94618.38;;;10.57;41.21
7918;BME280;4004;42.624;23.386;2023-03-19T09:59:07;94606.41;;;10.55;41.60
7918;BME280;4004;42.624;23.386;2023-03-19T10:01:35;94611.50;;;10.60;41.28
7918;BME280;4004;42.624;23.386;2023-03-19T10:04:18;94609.03;;;10.67;41.49
7918;BME280;4004;42.624;23.386;2023-03-19T10:06:55;94599.28;;;10.63;41.63
7918;BME280;4004;42.624;23.386;2023-03-19T10:09:34;94598.19;;;10.64;40.82
7918;BME280;4004;42.624;23.386;2023-03-19T10:12:15;94598.38;;;10.71;41.02
7918;BME280;4004;42.624;23.386;2023-03-19T10:14:58;94597.69;;;10.74;41.89
7918;BME280;4004;42.624;23.386;2023-03-19T10:17:31;94586.75;;;10.83;40.95
7918;BME280;4004;42.624;23.386;2023-03-19T10:20:02;94590.41;;;10.90;40.97
7918;BME280;4004;42.624;23.386;2023-03-19T10:22:35;94590.41;;;10.90;40.94
7918;BME280;4004;42.624;23.386;2023-03-19T10:25:05;94587.56;;;10.83;41.06
7918;BME280;4004;42.624;23.386;2023-03-19T10:27:36;94581.19;;;10.75;40.59
7918;BME280;4004;42.624;23.386;2023-03-19T10:30:12;94569.81;;;10.66;40.66
7918;BME280;4004;42.624;23.386;2023-03-19T10:32:41;94567.69;;;10.72;40.82
7918;BME280;4004;42.624;23.386;2023-03-19T10:35:15;94567.06;;;10.78;40.88
7918;BME280;4004;42.624;23.386;2023-03-19T10:37:45;94563.25;;;10.79;40.99
7918;BME280;4004;42.624;23.386;2023-03-19T10:40:19;94555.72;;;10.85;40.36
7918;BME280;4004;42.624;23.386;2023-03-19T10:43:00;94559.34;;;10.93;40.73
7918;BME280;4004;42.624;23.386;2023-03-19T10:45:31;94547.72;;;11.05;40.14
7918;BME280;4004;42.624;23.386;2023-03-19T10:48:00;94556.50;;;11.02;40.55
7918;BME280;4004;42.624;23.386;2023-03-19T10:50:29;94540.25;;;10.98;40.18
7918;BME280;4004;42.624;23.386;2023-03-19T10:53:03;94535.69;;;10.98;40.64
7918;BME280;4004;42.624;23.386;2023-03-19T10:55:32;94532.56;;;10.96;40.92
7918;BME280;4004;42.624;23.386;2023-03-19T10:58:05;94532.28;;;11.02;40.23
7918;BME280;4004;42.624;23.386;2023-03-19T11:00:32;94528.81;;;11.01;40.21
7918;BME280;4004;42.624;23.386;2023-03-19T11:03:00;94525.75;;;11.03;40.04
7918;BME280;4004;42.624;23.386;2023-03-19T11:05:30;94523.34;;;10.97;39.82
7918;BME280;4004;42.624;23.386;2023-03-19T11:08:00;94514.38;;;11.09;40.35
7918;BME280;4004;42.624;23.386;2023-03-19T11:10:29;94506.84;;;11.15;40.84
7918;BME280;4004;42.624;23.386;2023-03-19T11:12:58;94504.84;;;11.28;39.80
7918;BME280;4004;42.624;23.386;2023-03-19T11:15:30;94507.25;;;11.33;40.03
7918;BME280;4004;42.624;23.386;2023-03-19T11:17:59;94495.97;;;11.43;40.11
7918;BME280;4004;42.624;23.386;2023-03-19T11:20:29;94491.22;;;11.56;39.92
7918;BME280;4004;42.624;23.386;2023-03-19T11:22:58;94491.03;;;11.65;39.56
7918;BME280;4004;42.624;23.386;2023-03-19T11:25:30;94477.41;;;11.57;39.62
7918;BME280;4004;42.624;23.386;2023-03-19T11:28:01;94477.56;;;11.65;39.83
7918;BME280;4004;42.624;23.386;2023-03-19T11:30:35;94476.16;;;11.71;39.52
7918;BME280;4004;42.624;23.386;2023-03-19T11:33:24;94475.44;;;11.90;39.38
7918;BME280;4004;42.624;23.386;2023-03-19T11:36:00;94476.47;;;11.85;39.35
7918;BME280;4004;42.624;23.386;2023-03-19T11:38:37;94470.38;;;11.88;39.67
7918;BME280;4004;42.624;23.386;2023-03-19T11:41:15;94461.88;;;12.06;38.76
7918;BME280;4004;42.624;23.386;2023-03-19T11:43:51;94461.78;;;12.02;38.78
7918;BME280;4004;42.624;23.386;2023-03-19T11:46:32;94455.06;;;11.92;38.56
7918;BME280;4004;42.624;23.386;2023-03-19T11:49:10;94451.09;;;12.06;38.90
7918;BME280;4004;42.624;23.386;2023-03-19T11:51:45;94454.63;;;12.10;38.57
7918;BME280;4004;42.624;23.386;2023-03-19T11:54:20;94454.47;;;12.22;38.88
7918;BME280;4004;42.624;23.386;2023-03-19T11:56:56;94451.06;;;12.25;38.42
7918;BME280;4004;42.624;23.386;2023-03-19T11:59:55;94444.97;;;12.28;38.59
7918;BME280;4004;42.624;23.386;2023-03-19T12:02:38;94452.41;;;12.35;38.40
7918;BME280;4004;42.624;23.386;2023-03-19T12:05:18;94431.91;;;12.30;38.88
7918;BME280;4004;42.624;23.386;2023-03-19T12:07:56;94433.22;;;12.40;39.54
7918;BME280;4004;42.624;23.386;2023-03-19T12:10:34;94432.75;;;12.57;38.48
7918;BME280;4004;42.624;23.386;2023-03-19T12:13:18;94431.31;;;12.63;38.45
7918;BME280;4004;42.624;23.386;2023-03-19T12:15:55;94437.59;;;12.71;37.62
7918;BME280;4004;42.624;23.386;2023-03-19T12:18:42;94432.63;;;12.73;38.09
7918;BME280;4004;42.624;23.386;2023-03-19T12:21:17;94422.31;;;12.79;37.66
7918;BME280;4004;42.624;23.386;2023-03-19T12:24:00;94425.72;;;12.76;37.37
7918;BME280;4004;42.624;23.386;2023-03-19T12:26:34;94420.56;;;12.67;38.29
7918;BME280;4004;42.624;23.386;2023-03-19T12:29:15;94411.00;;;12.70;37.53
7918;BME280;4004;42.624;23.386;2023-03-19T12:32:03;94405.38;;;12.78;37.97
7918;BME280;4004;42.624;23.386;2023-03-19T12:34:37;94402.13;;;12.96;37.56
7918;BME280;4004;42.624;23.386;2023-03-19T12:37:13;94412.94;;;12.96;37.98
7918;BME280;4004;42.624;23.386;2023-03-19T12:39:49;94409.13;;;13.00;37.97
7918;BME280;4004;42.624;23.386;2023-03-19T12:42:20;94408.06;;;13.05;37.71
7918;BME280;4004;42.624;23.386;2023-03-19T12:44:52;94402.97;;;13.00;37.61
7918;BME280;4004;42.624;23.386;2023-03-19T12:47:24;94395.63;;;13.00;37.75
7918;BME280;4004;42.624;23.386;2023-03-19T12:49:54;94393.34;;;13.02;37.78
7918;BME280;4004;42.624;23.386;2023-03-19T12:52:28;94388.69;;;12.99;37.54
7918;BME280;4004;42.624;23.386;2023-03-19T12:55:01;94388.75;;;13.03;37.80
7918;BME280;4004;42.624;23.386;2023-03-19T12:57:32;94396.59;;;13.12;38.72
7918;BME280;4004;42.624;23.386;2023-03-19T13:00:06;94384.38;;;13.21;37.94
7918;BME280;4004;42.624;23.386;2023-03-19T13:02:40;94382.63;;;13.33;36.95
7918;BME280;4004;42.624;23.386;2023-03-19T13:05:16;94383.41;;;13.33;36.82
7918;BME280;4004;42.624;23.386;2023-03-19T13:07:53;94383.06;;;13.38;37.18
7918;BME280;4004;42.624;23.386;2023-03-19T13:10:23;94373.38;;;13.34;36.75
7918;BME280;4004;42.624;23.386;2023-03-19T13:12:52;94378.88;;;13.41;36.93
7918;BME280;4004;42.624;23.386;2023-03-19T13:15:25;94371.91;;;13.40;37.31
7918;BME280;4004;42.624;23.386;2023-03-19T13:18:02;94370.88;;;13.48;37.32
7918;BME280;4004;42.624;23.386;2023-03-19T13:20:41;94372.81;;;13.51;36.76
7918;BME280;4004;42.624;23.386;2023-03-19T13:23:18;94368.59;;;13.50;36.69
7918;BME280;4004;42.624;23.386;2023-03-19T13:25:48;94369.91;;;13.63;37.12
7918;BME280;4004;42.624;23.386;2023-03-19T13:28:20;94362.50;;;13.60;37.04